Sprague, Canada
Current Conditions -  °F | °C
As of 1:14 PM on Thursday 30 Oct 2014 (Local Time) from KROX Reporting Station
Broken Clouds Broken Clouds  
Wind Chill: 25°   Ceiling: 3200
Heat Index: 37°   Visibility: 10mi
Dew Point: 27°   Wind: 28mph
Humidity: 65%   Direction: 330°NNW
Pressure: 30.26"   Gusts: 33mph
Location:  49.03°N, 95.65°W
Report Text: KROX 301814Z AUTO 33024G29KT 10SM BKN032 03/M03 A3026 RMK AO2
Loading
Personal Weather Stations






























Interactive Weather Map
Tropical Storm Tracking
New forecast layout! Learn more

10-Day Weather Forecast

Advertisements
Track Severe Weather on mobile